createdAt,value
2018-11-10T00:00:39.937Z,7.58
2018-11-10T00:01:39.965Z,7.61
2018-11-10T00:02:39.992Z,7.63
2018-11-10T00:03:40.019Z,7.50
2018-11-10T00:04:40.047Z,7.50
2018-11-10T00:05:40.075Z,7.52
2018-11-10T00:06:40.105Z,7.50
2018-11-10T00:07:40.169Z,7.67
2018-11-10T00:08:40.161Z,7.68
2018-11-10T00:09:40.187Z,7.67
2018-11-10T00:10:40.212Z,7.57
2018-11-10T00:11:40.241Z,7.61
2018-11-10T00:12:40.267Z,7.61
2018-11-10T00:13:40.295Z,7.42
2018-11-10T00:14:40.321Z,7.40
2018-11-10T00:15:40.349Z,7.35
2018-11-10T00:16:40.413Z,7.30
2018-11-10T00:17:40.407Z,7.25
2018-11-10T00:18:40.433Z,7.21
2018-11-10T00:19:40.461Z,7.16
2018-11-10T00:20:40.487Z,7.17
2018-11-10T00:21:40.515Z,7.13
2018-11-10T00:22:40.542Z,7.03
2018-11-10T00:23:40.570Z,7.07
2018-11-10T00:24:40.597Z,7.10
2018-11-10T00:25:40.627Z,7.06
2018-11-10T00:26:40.652Z,7.16
2018-11-10T00:27:40.680Z,7.28
2018-11-10T00:28:40.708Z,7.42
2018-11-10T00:29:40.738Z,7.50
2018-11-10T00:30:40.762Z,7.48
2018-11-10T00:31:40.791Z,7.48
2018-11-10T00:32:40.819Z,7.46
2018-11-10T00:33:40.851Z,7.48
2018-11-10T00:34:40.973Z,7.49
2018-11-10T00:35:40.902Z,7.46
2018-11-10T00:36:40.929Z,7.42
2018-11-10T00:37:40.956Z,7.31
2018-11-10T00:38:40.983Z,7.27
2018-11-10T00:39:41.015Z,7.27
2018-11-10T00:40:41.039Z,7.15
2018-11-10T00:41:41.067Z,7.15
2018-11-10T00:42:41.147Z,7.13
2018-11-10T00:43:41.122Z,7.23
2018-11-10T00:44:41.149Z,7.25
2018-11-10T00:45:41.180Z,7.32
2018-11-10T00:46:41.205Z,7.17
2018-11-10T00:47:41.236Z,7.30
2018-11-10T00:48:41.259Z,7.16
2018-11-10T00:49:41.286Z,7.21
2018-11-10T00:50:41.317Z,7.21
2018-11-10T00:51:41.342Z,6.77
2018-11-10T00:52:41.376Z,6.79
2018-11-10T00:53:41.397Z,6.70
2018-11-10T00:54:41.449Z,6.66
2018-11-10T00:55:41.451Z,6.89
2018-11-10T00:56:41.478Z,6.92
2018-11-10T00:57:41.506Z,6.99
2018-11-10T00:58:41.533Z,7.09
2018-11-10T00:59:41.559Z,7.07
2018-11-10T01:00:41.589Z,7.20
2018-11-10T01:01:41.615Z,7.21
2018-11-10T01:02:41.641Z,7.35
2018-11-10T01:03:41.668Z,7.37
2018-11-10T01:04:41.697Z,7.23
2018-11-10T01:05:41.724Z,7.31
2018-11-10T01:06:41.750Z,7.32
2018-11-10T01:07:41.787Z,7.40
2018-11-10T01:08:41.808Z,7.39
2018-11-10T01:09:41.834Z,7.45
2018-11-10T01:10:41.910Z,7.53
2018-11-10T01:11:41.888Z,7.52
2018-11-10T01:12:41.916Z,7.45
2018-11-10T01:13:41.943Z,7.45
2018-11-10T01:14:41.970Z,7.39
2018-11-10T01:15:41.999Z,7.37
2018-11-10T01:16:42.026Z,7.45
2018-11-10T01:17:42.054Z,7.31
2018-11-10T01:18:42.080Z,7.37
2018-11-10T01:19:42.109Z,7.24
2018-11-10T01:20:42.136Z,7.28
2018-11-10T01:21:42.166Z,7.46
2018-11-10T01:22:42.194Z,7.48
2018-11-10T01:23:42.219Z,7.45
2018-11-10T01:24:42.246Z,7.40
2018-11-10T01:25:42.273Z,7.45
2018-11-10T01:26:42.301Z,7.50
2018-11-10T01:27:42.390Z,7.46
2018-11-10T01:28:42.356Z,7.48
2018-11-10T01:29:42.383Z,7.61
2018-11-10T01:30:42.411Z,7.69
2018-11-10T01:31:42.437Z,7.74
2018-11-10T01:32:42.467Z,7.79
2018-11-10T01:33:42.494Z,7.58
2018-11-10T01:34:42.521Z,7.52
2018-11-10T01:35:42.551Z,7.43
2018-11-10T01:36:42.575Z,7.34
2018-11-10T01:37:42.603Z,7.27
2018-11-10T01:38:42.630Z,7.25
2018-11-10T01:39:42.657Z,7.27
2018-11-10T01:40:42.685Z,7.20
2018-11-10T01:41:42.712Z,7.15
2018-11-10T01:42:42.740Z,7.28
2018-11-10T01:43:42.767Z,7.32
2018-11-10T01:44:42.795Z,7.32
2018-11-10T01:45:42.823Z,7.20
2018-11-10T01:46:42.852Z,7.28
2018-11-10T01:47:42.877Z,7.28
2018-11-10T01:48:42.907Z,7.34
2018-11-10T01:49:42.933Z,7.24
2018-11-10T01:50:42.959Z,7.30
2018-11-10T01:51:42.987Z,7.32
2018-11-10T01:52:43.017Z,7.43
2018-11-10T01:53:43.044Z,7.45
2018-11-10T01:54:43.070Z,7.67
2018-11-10T01:55:43.098Z,7.77
2018-11-10T01:56:43.125Z,7.72
2018-11-10T01:57:43.162Z,7.87
2018-11-10T01:58:43.187Z,7.82
2018-11-10T01:59:43.209Z,7.97
2018-11-10T02:00:43.236Z,7.90
2018-11-10T02:01:43.265Z,7.95
2018-11-10T02:02:43.290Z,7.89
2018-11-10T02:03:43.319Z,7.82
2018-11-10T02:04:43.351Z,7.68
2018-11-10T02:05:43.374Z,7.87
2018-11-10T02:06:43.489Z,7.89
2018-11-10T02:07:43.435Z,7.95
2018-11-10T02:08:43.459Z,7.86
2018-11-10T02:09:43.486Z,7.82
2018-11-10T02:10:43.514Z,7.87
2018-11-10T02:11:43.541Z,7.93
2018-11-10T02:12:43.569Z,8.05
2018-11-10T02:13:43.596Z,8.12
2018-11-10T02:14:43.624Z,7.98
2018-11-10T02:15:43.653Z,8.07
2018-11-10T02:16:43.680Z,8.20
2018-11-10T02:17:43.708Z,8.16
2018-11-10T02:18:43.735Z,8.29
2018-11-10T02:19:43.764Z,8.25
2018-11-10T02:20:43.802Z,8.20
2018-11-10T02:21:43.820Z,8.36
2018-11-10T02:22:43.848Z,8.34
2018-11-10T02:23:43.877Z,8.22
2018-11-10T02:24:43.904Z,8.00
2018-11-10T02:25:43.931Z,7.90
2018-11-10T02:26:43.957Z,7.71
2018-11-10T02:27:43.987Z,7.72
2018-11-10T02:28:44.014Z,7.79
2018-11-10T02:29:44.043Z,7.83
2018-11-10T02:30:44.072Z,7.82
2018-11-10T02:31:44.097Z,7.77
2018-11-10T02:32:44.130Z,7.75
2018-11-10T02:33:44.154Z,7.72
2018-11-10T02:34:44.184Z,7.75
2018-11-10T02:35:44.209Z,7.79
2018-11-10T02:36:44.236Z,7.75
2018-11-10T02:37:44.268Z,7.90
2018-11-10T02:38:44.336Z,7.97
2018-11-10T02:39:44.321Z,8.00
2018-11-10T02:40:44.352Z,7.97
2018-11-10T02:41:44.378Z,7.95
2018-11-10T02:42:44.416Z,8.08
2018-11-10T02:43:44.433Z,7.98
2018-11-10T02:44:44.464Z,8.02
2018-11-10T02:45:44.489Z,8.00
2018-11-10T02:46:44.516Z,8.00
2018-11-10T02:47:44.544Z,8.01
2018-11-10T02:48:44.571Z,8.10
2018-11-10T02:49:44.616Z,8.08
2018-11-10T02:50:44.628Z,7.98
2018-11-10T02:51:44.657Z,8.08
2018-11-10T02:52:44.747Z,8.07
2018-11-10T02:53:44.712Z,8.05
2018-11-10T02:54:44.739Z,7.98
2018-11-10T02:55:44.767Z,7.98
2018-11-10T02:56:44.795Z,7.92
2018-11-10T02:57:44.824Z,8.02
2018-11-10T02:58:44.850Z,8.04
2018-11-10T02:59:44.879Z,8.05
2018-11-10T03:00:44.907Z,8.01
2018-11-10T03:01:44.936Z,7.97
2018-11-10T03:02:44.962Z,7.97
2018-11-10T03:03:44.994Z,7.97
2018-11-10T03:04:45.020Z,8.01
2018-11-10T03:05:45.047Z,7.97
2018-11-10T03:06:45.074Z,8.04
2018-11-10T03:07:45.102Z,8.00
2018-11-10T03:08:45.130Z,8.00
2018-11-10T03:09:45.158Z,8.02
2018-11-10T03:10:45.238Z,8.07
2018-11-10T03:11:45.213Z,8.04
2018-11-10T03:12:45.245Z,8.04
2018-11-10T03:13:45.269Z,8.02
2018-11-10T03:14:45.297Z,8.10
2018-11-10T03:15:45.325Z,8.07
2018-11-10T03:16:45.355Z,8.11
2018-11-10T03:17:45.382Z,8.11
2018-11-10T03:18:45.410Z,8.19
2018-11-10T03:19:45.437Z,8.16
2018-11-10T03:20:45.465Z,8.18
2018-11-10T03:21:45.493Z,8.18
2018-11-10T03:22:45.521Z,8.18
2018-11-10T03:23:45.555Z,8.22
2018-11-10T03:24:45.578Z,8.23
2018-11-10T03:25:45.605Z,8.25
2018-11-10T03:26:45.633Z,8.26
2018-11-10T03:27:45.660Z,8.36
2018-11-10T03:28:45.690Z,8.41
2018-11-10T03:29:45.717Z,8.45
2018-11-10T03:30:45.744Z,8.48
2018-11-10T03:31:45.774Z,8.48
2018-11-10T03:32:45.802Z,8.44
2018-11-10T03:33:45.830Z,8.48
2018-11-10T03:34:45.857Z,8.48
2018-11-10T03:35:45.885Z,8.50
2018-11-10T03:36:45.913Z,8.56
2018-11-10T03:37:45.943Z,8.55
2018-11-10T03:38:45.968Z,8.56
2018-11-10T03:39:45.999Z,8.61
2018-11-10T03:40:46.026Z,8.58
2018-11-10T03:41:46.056Z,8.56
2018-11-10T03:42:46.082Z,8.61
2018-11-10T03:43:46.110Z,8.56
2018-11-10T03:44:46.138Z,8.48
2018-11-10T03:45:46.167Z,8.55
2018-11-10T03:46:46.194Z,8.47
2018-11-10T03:47:46.223Z,8.50
2018-11-10T03:48:46.325Z,8.58
2018-11-10T03:49:46.281Z,8.56
2018-11-10T03:50:46.307Z,8.65
2018-11-10T03:51:46.340Z,8.70
2018-11-10T03:52:46.366Z,8.66
2018-11-10T03:53:46.392Z,8.65
2018-11-10T03:54:46.421Z,8.58
2018-11-10T03:55:46.448Z,8.65
2018-11-10T03:56:46.482Z,8.58
2018-11-10T03:57:46.566Z,8.61
2018-11-10T03:58:46.534Z,8.71
2018-11-10T03:59:46.561Z,8.66
2018-11-10T04:00:46.590Z,8.56
2018-11-10T04:01:46.619Z,8.50
2018-11-10T04:02:46.648Z,8.53
2018-11-10T04:03:46.675Z,8.44
2018-11-10T04:04:46.705Z,8.40
2018-11-10T04:05:46.733Z,8.47
2018-11-10T04:06:46.760Z,8.63
2018-11-10T04:07:46.789Z,8.59
2018-11-10T04:08:46.816Z,8.71
2018-11-10T04:09:46.853Z,8.70
2018-11-10T04:10:46.874Z,8.50
2018-11-10T04:11:46.902Z,8.56
2018-11-10T04:12:46.930Z,8.63
2018-11-10T04:13:46.960Z,8.58
2018-11-10T04:14:46.991Z,8.63
2018-11-10T04:15:47.014Z,8.65
2018-11-10T04:16:47.044Z,8.74
2018-11-10T04:17:47.073Z,8.61
2018-11-10T04:18:47.100Z,8.63
2018-11-10T04:19:47.128Z,8.56
2018-11-10T04:20:47.159Z,8.58
2018-11-10T04:21:47.185Z,8.65
2018-11-10T04:22:47.213Z,8.66
2018-11-10T04:23:47.243Z,8.65
2018-11-10T04:24:47.270Z,8.56
2018-11-10T04:25:47.300Z,8.61
2018-11-10T04:26:47.327Z,8.53
2018-11-10T04:27:47.355Z,8.70
2018-11-10T04:28:47.384Z,8.56
2018-11-10T04:29:47.413Z,8.50
2018-11-10T04:30:47.440Z,8.58
2018-11-10T04:31:47.470Z,8.68
2018-11-10T04:32:47.499Z,8.55
2018-11-10T04:33:47.526Z,8.59
2018-11-10T04:34:47.554Z,8.62
2018-11-10T04:35:47.583Z,8.62
2018-11-10T04:36:47.613Z,8.63
2018-11-10T04:37:47.640Z,8.63
2018-11-10T04:38:47.668Z,8.65
2018-11-10T04:39:47.698Z,8.68
2018-11-10T04:40:47.727Z,8.83
2018-11-10T04:41:47.755Z,8.84
2018-11-10T04:42:47.792Z,8.91
2018-11-10T04:43:47.813Z,8.84
2018-11-10T04:44:47.841Z,8.94
2018-11-10T04:45:47.869Z,9.05
2018-11-10T04:46:47.897Z,8.96
2018-11-10T04:47:47.926Z,8.84
2018-11-10T04:48:47.986Z,8.94
2018-11-10T04:49:48.041Z,8.89
2018-11-10T04:50:48.014Z,8.86
2018-11-10T04:51:48.040Z,8.79
2018-11-10T04:52:48.070Z,8.89
2018-11-10T04:53:48.098Z,8.86
2018-11-10T04:54:48.127Z,8.94
2018-11-10T04:55:48.158Z,8.96
2018-11-10T04:56:48.184Z,9.02
2018-11-10T04:57:48.214Z,8.89
2018-11-10T04:58:48.241Z,8.99
2018-11-10T04:59:48.270Z,9.04
2018-11-10T05:00:48.298Z,8.95
2018-11-10T05:01:48.328Z,8.98
2018-11-10T05:02:48.356Z,8.89
2018-11-10T05:03:48.384Z,8.86
2018-11-10T05:04:48.413Z,8.95
2018-11-10T05:05:48.444Z,8.92
2018-11-10T05:06:48.471Z,8.80
2018-11-10T05:07:48.501Z,8.77
2018-11-10T05:08:48.528Z,8.76
2018-11-10T05:09:48.558Z,8.71
2018-11-10T05:10:48.591Z,8.74
2018-11-10T05:11:48.614Z,8.68
2018-11-10T05:12:48.643Z,8.74
2018-11-10T05:13:48.673Z,8.77
2018-11-10T05:14:48.701Z,8.86
2018-11-10T05:15:48.729Z,8.84
2018-11-10T05:16:48.758Z,8.95
2018-11-10T05:17:48.788Z,8.95
2018-11-10T05:18:48.817Z,8.84
2018-11-10T05:19:48.844Z,8.94
2018-11-10T05:20:48.873Z,8.87
2018-11-10T05:21:48.902Z,8.83
2018-11-10T05:22:48.930Z,8.89
2018-11-10T05:23:48.961Z,8.91
2018-11-10T05:24:48.989Z,8.95
2018-11-10T05:25:49.016Z,8.96
2018-11-10T05:26:49.044Z,9.01
2018-11-10T05:27:49.074Z,8.89
2018-11-10T05:28:49.103Z,8.87
2018-11-10T05:29:49.131Z,8.92
2018-11-10T05:30:49.160Z,8.86
2018-11-10T05:31:49.189Z,8.77
2018-11-10T05:32:49.216Z,8.89
2018-11-10T05:33:49.246Z,8.87
2018-11-10T05:34:49.274Z,8.76
2018-11-10T05:35:49.301Z,8.76
2018-11-10T05:36:49.331Z,8.86
2018-11-10T05:37:49.359Z,8.86
2018-11-10T05:38:49.389Z,8.81
2018-11-10T05:39:49.416Z,8.80
2018-11-10T05:40:49.446Z,8.86
2018-11-10T05:41:49.474Z,8.86
2018-11-10T05:42:49.501Z,8.84
2018-11-10T05:43:49.530Z,8.83
2018-11-10T05:44:49.560Z,8.74
2018-11-10T05:45:49.587Z,8.80
2018-11-10T05:46:49.618Z,8.89
2018-11-10T05:47:49.644Z,8.96
2018-11-10T05:48:49.673Z,8.94
2018-11-10T05:49:49.700Z,9.13
2018-11-10T05:50:49.728Z,9.08
2018-11-10T05:51:49.757Z,9.05
2018-11-10T05:52:49.786Z,9.20
2018-11-10T05:53:49.816Z,9.18
2018-11-10T05:54:49.843Z,9.24
2018-11-10T05:55:49.871Z,9.20
2018-11-10T05:56:49.900Z,9.24
2018-11-10T05:57:49.928Z,9.20
2018-11-10T05:58:49.958Z,9.29
2018-11-10T05:59:49.987Z,9.40
2018-11-10T06:00:50.059Z,9.24
2018-11-10T06:01:50.043Z,9.33
2018-11-10T06:02:50.077Z,9.29
2018-11-10T06:03:50.099Z,9.40
2018-11-10T06:04:50.127Z,9.40
2018-11-10T06:05:50.159Z,9.42
2018-11-10T06:06:50.185Z,9.54
2018-11-10T06:07:50.212Z,9.53
2018-11-10T06:08:50.243Z,9.53
2018-11-10T06:09:50.391Z,9.47
2018-11-10T06:10:50.299Z,9.31
2018-11-10T06:11:50.328Z,9.31
2018-11-10T06:12:50.421Z,9.17
2018-11-10T06:13:50.384Z,9.23
2018-11-10T06:14:50.413Z,9.28
2018-11-10T06:15:50.443Z,9.24
2018-11-10T06:16:50.470Z,9.15
2018-11-10T06:17:50.499Z,9.15
2018-11-10T06:18:50.615Z,9.24
2018-11-10T06:19:50.556Z,9.32
2018-11-10T06:20:50.585Z,9.29
2018-11-10T06:21:50.620Z,9.36
2018-11-10T06:22:50.643Z,9.46
2018-11-10T06:23:50.672Z,9.36
2018-11-10T06:24:50.700Z,9.47
2018-11-10T06:25:50.733Z,9.35
2018-11-10T06:26:50.757Z,9.29
2018-11-10T06:27:50.785Z,9.28
2018-11-10T06:28:50.816Z,9.31
2018-11-10T06:29:50.845Z,9.38
2018-11-10T06:30:50.872Z,9.32
2018-11-10T06:31:50.902Z,9.28
2018-11-10T06:32:50.936Z,9.33
2018-11-10T06:33:50.960Z,9.24
2018-11-10T06:34:50.989Z,9.29
2018-11-10T06:35:51.017Z,9.24
2018-11-10T06:36:51.047Z,9.17
2018-11-10T06:37:51.075Z,9.17
2018-11-10T06:38:51.103Z,9.21
2018-11-10T06:39:51.133Z,9.21
2018-11-10T06:40:51.163Z,9.13
2018-11-10T06:41:51.191Z,9.18
2018-11-10T06:42:51.220Z,9.17
2018-11-10T06:43:51.249Z,9.10
2018-11-10T06:44:51.277Z,9.17
2018-11-10T06:45:51.308Z,9.24
2018-11-10T06:46:51.338Z,9.31
2018-11-10T06:47:51.365Z,9.32
2018-11-10T06:48:51.395Z,9.38
2018-11-10T06:49:51.424Z,9.39
2018-11-10T06:50:51.451Z,9.50
2018-11-10T06:51:51.480Z,9.53
2018-11-10T06:52:51.567Z,9.51
2018-11-10T06:53:51.538Z,9.60
2018-11-10T06:54:51.569Z,9.50
2018-11-10T06:55:51.597Z,9.36
2018-11-10T06:56:51.624Z,9.28
2018-11-10T06:57:51.653Z,9.29
2018-11-10T06:58:51.683Z,9.46
2018-11-10T06:59:51.712Z,9.32
2018-11-10T07:00:51.740Z,9.32
2018-11-10T07:01:51.771Z,9.32
2018-11-10T07:02:51.798Z,9.28
2018-11-10T07:03:51.829Z,9.33
2018-11-10T07:04:51.855Z,9.23
2018-11-10T07:05:51.887Z,9.33
2018-11-10T07:06:51.912Z,9.29
2018-11-10T07:07:51.942Z,9.31
2018-11-10T07:08:51.970Z,9.32
2018-11-10T07:09:52.003Z,9.31
2018-11-10T07:10:52.028Z,9.35
2018-11-10T07:11:52.058Z,9.29
2018-11-10T07:12:52.086Z,9.28
2018-11-10T07:13:52.113Z,9.38
2018-11-10T07:14:52.141Z,9.39
2018-11-10T07:15:52.225Z,9.50
2018-11-10T07:16:52.200Z,9.57
2018-11-10T07:17:52.234Z,9.74
2018-11-10T07:18:52.258Z,9.74
2018-11-10T07:19:52.287Z,9.83
2018-11-10T07:20:52.315Z,9.78
2018-11-10T07:21:52.345Z,9.74
2018-11-10T07:22:52.372Z,9.65
2018-11-10T07:23:52.402Z,9.68
2018-11-10T07:24:52.467Z,9.69
2018-11-10T07:25:52.460Z,9.84
2018-11-10T07:26:52.489Z,9.71
2018-11-10T07:27:52.518Z,9.74
2018-11-10T07:28:52.552Z,9.76
2018-11-10T07:29:52.575Z,9.79
2018-11-10T07:30:52.604Z,9.76
2018-11-10T07:31:52.637Z,9.81
2018-11-10T07:32:52.661Z,9.93
2018-11-10T07:33:52.691Z,9.93
2018-11-10T07:34:52.724Z,10.08
2018-11-10T07:35:52.748Z,10.08
2018-11-10T07:36:52.778Z,10.14
2018-11-10T07:37:52.808Z,10.25
2018-11-10T07:38:52.836Z,10.14
2018-11-10T07:39:52.864Z,10.12
2018-11-10T07:40:52.894Z,10.18
2018-11-10T07:41:52.923Z,10.11
2018-11-10T07:42:52.966Z,10.11
2018-11-10T07:43:52.982Z,9.94
2018-11-10T07:44:53.012Z,9.94
2018-11-10T07:45:53.041Z,10.09
2018-11-10T07:46:53.068Z,10.08
2018-11-10T07:47:53.098Z,10.11
2018-11-10T07:48:53.133Z,10.25
2018-11-10T07:49:53.158Z,10.29
2018-11-10T07:50:53.185Z,10.20
2018-11-10T07:51:53.214Z,10.25
2018-11-10T07:52:53.245Z,10.27
2018-11-10T07:53:53.273Z,10.18
2018-11-10T07:54:53.302Z,10.32
2018-11-10T07:55:53.369Z,10.33
2018-11-10T07:56:53.360Z,10.38
2018-11-10T07:57:53.391Z,10.36
2018-11-10T07:58:53.419Z,10.51
2018-11-10T07:59:53.451Z,10.56
2018-11-10T08:00:53.480Z,10.71
2018-11-10T08:01:53.509Z,10.84
2018-11-10T08:02:53.538Z,10.94
2018-11-10T08:03:53.566Z,11.03
2018-11-10T08:04:53.598Z,11.02
2018-11-10T08:05:53.627Z,10.88
2018-11-10T08:06:53.656Z,10.84
2018-11-10T08:07:53.685Z,10.86
2018-11-10T08:08:53.715Z,10.86
2018-11-10T08:09:53.746Z,10.86
2018-11-10T08:10:53.774Z,10.91
2018-11-10T08:11:53.902Z,11.00
2018-11-10T08:12:53.836Z,11.02
2018-11-10T08:13:53.865Z,11.03
2018-11-10T08:14:53.894Z,11.06
2018-11-10T08:15:53.924Z,11.10
2018-11-10T08:16:55.758Z,11.07
2018-11-10T08:17:53.986Z,11.15
2018-11-10T08:18:54.015Z,11.07
2018-11-10T08:19:54.044Z,11.11
2018-11-10T08:20:54.074Z,11.11
2018-11-10T08:21:54.108Z,11.19
2018-11-10T08:22:54.136Z,11.28
2018-11-10T08:23:54.165Z,11.39
2018-11-10T08:24:54.244Z,11.51
2018-11-10T08:25:54.230Z,11.58
2018-11-10T08:26:54.255Z,11.62
2018-11-10T08:27:54.287Z,11.62
2018-11-10T08:28:54.317Z,11.73
2018-11-10T08:29:54.349Z,11.82
2018-11-10T08:30:54.376Z,11.76
2018-11-10T08:31:54.408Z,11.79
2018-11-10T08:32:54.444Z,11.73
2018-11-10T08:33:54.469Z,11.91
2018-11-10T08:34:54.499Z,11.96
2018-11-10T08:35:54.529Z,11.90
2018-11-10T08:36:54.559Z,11.96
2018-11-10T08:37:54.590Z,11.90
2018-11-10T08:38:54.642Z,11.95
2018-11-10T08:39:54.651Z,11.99
2018-11-10T08:40:54.680Z,11.98
2018-11-10T08:41:54.712Z,11.88
2018-11-10T08:42:54.791Z,11.94
2018-11-10T08:43:54.772Z,11.79
2018-11-10T08:44:54.803Z,11.75
2018-11-10T08:45:54.833Z,11.76
2018-11-10T08:46:54.864Z,11.72
2018-11-10T08:47:54.893Z,11.80
2018-11-10T08:48:54.925Z,11.60
2018-11-10T08:49:54.956Z,11.52
2018-11-10T08:50:54.986Z,11.47
2018-11-10T08:51:55.017Z,11.47
2018-11-10T08:52:55.196Z,11.52
2018-11-10T08:53:55.078Z,11.69
2018-11-10T08:54:55.108Z,11.65
2018-11-10T08:55:55.138Z,11.55
2018-11-10T08:56:55.169Z,11.61
2018-11-10T08:57:55.202Z,11.65
2018-11-10T08:58:55.253Z,11.64
2018-11-10T08:59:55.262Z,11.64
2018-11-10T09:00:55.292Z,11.58
2018-11-10T09:01:55.322Z,11.61
2018-11-10T09:02:55.353Z,11.52
2018-11-10T09:03:55.384Z,11.60
2018-11-10T09:04:55.414Z,11.57
2018-11-10T09:05:55.445Z,11.62
2018-11-10T09:06:55.476Z,11.57
2018-11-10T09:07:55.506Z,11.65
2018-11-10T09:08:55.537Z,11.69
2018-11-10T09:09:55.612Z,11.75
2018-11-10T09:10:55.597Z,11.80
2018-11-10T09:11:55.632Z,11.88
2018-11-10T09:12:55.659Z,11.85
2018-11-10T09:13:55.690Z,12.01
2018-11-10T09:14:55.776Z,12.09
2018-11-10T09:15:55.753Z,12.09
2018-11-10T09:16:55.783Z,12.10
2018-11-10T09:17:55.914Z,12.10
2018-11-10T09:18:55.844Z,12.17
2018-11-10T09:19:55.875Z,12.31
2018-11-10T09:20:55.905Z,12.27
2018-11-10T09:21:55.937Z,12.38
2018-11-10T09:22:55.966Z,12.37
2018-11-10T09:23:55.997Z,12.37
2018-11-10T09:24:56.029Z,12.52
2018-11-10T09:25:56.060Z,12.49
2018-11-10T09:26:56.093Z,12.57
2018-11-10T09:27:56.121Z,12.46
2018-11-10T09:28:56.152Z,12.60
2018-11-10T09:29:56.183Z,12.62
2018-11-10T09:30:56.264Z,12.49
2018-11-10T09:31:56.245Z,12.50
2018-11-10T09:32:56.276Z,12.49
2018-11-10T09:33:56.307Z,12.35
2018-11-10T09:34:56.337Z,12.39
2018-11-10T09:35:56.369Z,12.32
2018-11-10T09:36:56.401Z,12.23
2018-11-10T09:37:56.431Z,12.35
2018-11-10T09:38:56.464Z,12.37
2018-11-10T09:39:56.494Z,12.41
2018-11-10T09:40:56.529Z,12.34
2018-11-10T09:41:56.577Z,12.49
2018-11-10T09:42:56.587Z,12.52
2018-11-10T09:43:56.625Z,12.62
2018-11-10T09:44:56.649Z,12.77
2018-11-10T09:45:56.681Z,12.83
2018-11-10T09:46:56.712Z,12.79
2018-11-10T09:47:56.742Z,12.95
2018-11-10T09:48:56.782Z,13.11
2018-11-10T09:49:56.839Z,13.19
2018-11-10T09:50:56.920Z,13.28
2018-11-10T09:51:56.867Z,13.36
2018-11-10T09:52:56.903Z,13.39
2018-11-10T09:53:56.930Z,13.19
2018-11-10T09:54:56.962Z,13.11
2018-11-10T09:55:56.994Z,13.08
2018-11-10T09:56:57.026Z,13.12
2018-11-10T09:57:57.057Z,13.11
2018-11-10T09:58:57.089Z,13.14
2018-11-10T09:59:57.121Z,13.19
2018-11-10T10:00:57.187Z,13.20
2018-11-10T10:01:57.449Z,13.25
2018-11-10T10:02:57.215Z,13.20
2018-11-10T10:03:57.247Z,13.12
2018-11-10T10:04:57.279Z,13.14
2018-11-10T10:05:57.314Z,13.19
2018-11-10T10:06:57.343Z,13.08
2018-11-10T10:07:57.375Z,13.20
2018-11-10T10:08:57.412Z,13.23
2018-11-10T10:09:57.440Z,13.26
2018-11-10T10:10:57.472Z,13.29
2018-11-10T10:11:57.503Z,13.25
2018-11-10T10:12:57.535Z,13.39
2018-11-10T10:13:57.568Z,13.44
2018-11-10T10:14:57.598Z,13.54
2018-11-10T10:15:57.685Z,13.63
2018-11-10T10:16:57.664Z,13.70
2018-11-10T10:17:57.695Z,13.75
2018-11-10T10:18:57.728Z,13.77
2018-11-10T10:19:57.759Z,13.78
2018-11-10T10:20:57.792Z,13.87
2018-11-10T10:21:57.896Z,13.85
2018-11-10T10:22:57.854Z,13.85
2018-11-10T10:23:57.888Z,13.67
2018-11-10T10:24:57.919Z,13.73
2018-11-10T10:25:57.952Z,13.73
2018-11-10T10:26:57.983Z,13.77
2018-11-10T10:27:58.020Z,13.75
2018-11-10T10:28:58.059Z,13.60
2018-11-10T10:29:58.082Z,13.70
2018-11-10T10:30:58.113Z,13.79
2018-11-10T10:31:58.145Z,13.62
2018-11-10T10:32:58.179Z,13.60
2018-11-10T10:33:58.228Z,13.66
2018-11-10T10:34:58.266Z,13.70
2018-11-10T10:35:58.274Z,13.77
2018-11-10T10:36:58.307Z,13.64
2018-11-10T10:37:58.339Z,13.75
2018-11-10T10:38:58.370Z,13.84
2018-11-10T10:39:58.404Z,13.89
2018-11-10T10:40:58.436Z,13.88
2018-11-10T10:41:58.468Z,14.02
2018-11-10T10:42:58.577Z,14.15
2018-11-10T10:43:58.533Z,14.03
2018-11-10T10:44:58.565Z,14.14
2018-11-10T10:45:58.601Z,14.09
2018-11-10T10:46:58.632Z,14.09
2018-11-10T10:47:58.662Z,14.07
2018-11-10T10:48:58.835Z,14.09
2018-11-10T10:49:58.730Z,14.12
2018-11-10T10:50:58.759Z,14.14
2018-11-10T10:51:58.791Z,14.10
2018-11-10T10:52:58.827Z,14.10
2018-11-10T10:53:58.857Z,14.03
2018-11-10T10:54:58.887Z,14.07
2018-11-10T10:55:58.969Z,14.12
2018-11-10T10:56:59.036Z,14.12
2018-11-10T10:57:58.984Z,14.14
2018-11-10T10:58:59.018Z,14.17
2018-11-10T10:59:59.049Z,14.27
2018-11-10T11:00:59.082Z,14.15
2018-11-10T11:01:59.116Z,14.12
2018-11-10T11:02:59.268Z,14.14
2018-11-10T11:03:59.179Z,14.03
2018-11-10T11:04:59.211Z,13.97
2018-11-10T11:05:59.244Z,13.81
2018-11-10T11:06:59.275Z,13.79
2018-11-10T11:07:59.308Z,13.63
2018-11-10T11:08:59.459Z,13.52
2018-11-10T11:09:59.372Z,13.60
2018-11-10T11:10:59.404Z,13.54
2018-11-10T11:11:59.437Z,13.51
2018-11-10T11:12:59.471Z,13.55
2018-11-10T11:13:59.502Z,13.49
2018-11-10T11:14:59.550Z,13.39
2018-11-10T11:15:59.566Z,13.36
2018-11-10T11:16:59.598Z,13.26
2018-11-10T11:17:59.629Z,13.32
2018-11-10T11:18:59.662Z,13.29
2018-11-10T11:19:59.692Z,13.33
2018-11-10T11:20:59.725Z,13.36
2018-11-10T11:21:59.890Z,13.45
2018-11-10T11:22:59.791Z,13.52
2018-11-10T11:23:59.820Z,13.66
2018-11-10T11:24:59.852Z,13.55
2018-11-10T11:25:59.884Z,13.59
2018-11-10T11:26:59.916Z,13.64
2018-11-10T11:27:59.947Z,13.75
2018-11-10T11:29:00.013Z,13.78
2018-11-10T11:30:00.014Z,13.82
2018-11-10T11:31:00.054Z,13.85
2018-11-10T11:32:00.075Z,13.85
2018-11-10T11:33:00.108Z,14.03
2018-11-10T11:34:00.138Z,13.89
2018-11-10T11:35:00.197Z,14.04
2018-11-10T11:36:00.201Z,14.17
2018-11-10T11:37:00.234Z,14.07
2018-11-10T11:38:00.265Z,14.12
2018-11-10T11:39:00.297Z,14.21
2018-11-10T11:40:00.329Z,14.24
2018-11-10T11:41:00.414Z,14.27
2018-11-10T11:42:00.394Z,14.35
2018-11-10T11:43:00.424Z,14.57
2018-11-10T11:44:00.457Z,14.80
2018-11-10T11:45:00.490Z,15.02
2018-11-10T11:46:00.521Z,15.07
2018-11-10T11:47:00.555Z,15.09
2018-11-10T11:48:00.586Z,15.27
2018-11-10T11:49:00.620Z,15.34
2018-11-10T11:50:00.796Z,15.32
2018-11-10T11:51:00.684Z,15.01
2018-11-10T11:52:00.718Z,15.06
2018-11-10T11:53:00.751Z,14.72
2018-11-10T11:54:00.784Z,14.83
2018-11-10T11:55:00.817Z,14.75
2018-11-10T11:56:00.852Z,14.73
2018-11-10T11:57:00.882Z,14.89
2018-11-10T11:58:01.082Z,14.77
2018-11-10T11:59:00.950Z,14.72
2018-11-10T12:00:00.983Z,14.68
2018-11-10T12:01:01.015Z,14.64
2018-11-10T12:02:01.090Z,14.50
2018-11-10T12:03:01.084Z,14.43
2018-11-10T12:04:01.115Z,14.51
2018-11-10T12:05:01.148Z,14.37
2018-11-10T12:06:01.180Z,14.28
2018-11-10T12:07:01.212Z,14.22
2018-11-10T12:08:01.245Z,14.27
2018-11-10T12:09:01.279Z,14.14
2018-11-10T12:10:01.313Z,14.22
2018-11-10T12:11:01.343Z,14.18
2018-11-10T12:12:01.377Z,14.29
2018-11-10T12:13:01.411Z,14.37
2018-11-10T12:14:01.444Z,14.36
2018-11-10T12:15:01.521Z,14.50
2018-11-10T12:16:01.510Z,14.46
2018-11-10T12:17:01.616Z,14.43
2018-11-10T12:18:01.573Z,14.45
2018-11-10T12:19:01.607Z,14.47
2018-11-10T12:20:01.641Z,14.47
2018-11-10T12:21:01.750Z,14.50
2018-11-10T12:22:01.746Z,14.52
2018-11-10T12:23:01.737Z,14.47
2018-11-10T12:24:01.769Z,14.45
2018-11-10T12:25:01.803Z,14.43
2018-11-10T12:26:01.837Z,14.54
2018-11-10T12:27:01.870Z,14.68
2018-11-10T12:28:01.900Z,14.73
2018-11-10T12:29:01.932Z,14.77
2018-11-10T12:30:02.217Z,14.73
2018-11-10T12:31:01.999Z,14.86
2018-11-10T12:32:02.067Z,14.92
2018-11-10T12:33:02.064Z,14.96
2018-11-10T12:34:02.100Z,14.98
2018-11-10T12:35:02.132Z,15.13
2018-11-10T12:36:02.163Z,15.16
2018-11-10T12:37:02.195Z,15.14
2018-11-10T12:38:02.229Z,15.21
2018-11-10T12:39:02.260Z,15.14
2018-11-10T12:40:02.294Z,15.13
2018-11-10T12:41:02.326Z,15.19
2018-11-10T12:42:02.360Z,15.13
2018-11-10T12:43:02.393Z,15.09
2018-11-10T12:44:02.426Z,15.17
2018-11-10T12:45:02.466Z,15.07
2018-11-10T12:46:02.493Z,15.07
2018-11-10T12:47:02.524Z,15.06
2018-11-10T12:48:02.562Z,15.11
2018-11-10T12:49:02.699Z,15.03
2018-11-10T12:50:02.628Z,14.98
2018-11-10T12:51:02.657Z,14.99
2018-11-10T12:52:02.690Z,14.99
2018-11-10T12:53:02.726Z,15.02
2018-11-10T12:54:02.759Z,15.06
2018-11-10T12:55:02.847Z,14.96
2018-11-10T12:56:02.823Z,15.07
2018-11-10T12:57:02.857Z,15.13
2018-11-10T12:58:02.934Z,15.13
2018-11-10T12:59:02.924Z,15.09
2018-11-10T13:00:02.956Z,15.03
2018-11-10T13:01:02.996Z,15.07
2018-11-10T13:02:03.024Z,15.02
2018-11-10T13:03:03.059Z,14.99
2018-11-10T13:04:03.090Z,14.91
2018-11-10T13:05:03.122Z,15.07
2018-11-10T13:06:03.157Z,14.99
2018-11-10T13:07:03.191Z,15.10
2018-11-10T13:08:03.283Z,15.23